sensor_id;sensor_type;location;lat;lon;timestamp;P1;durP1;ratioP1;P2;durP2;ratioP2
13463;SDS011;6804;48.774;9.174;2022-12-19T00:01:52;32.53;;;17.73;;
13463;SDS011;6804;48.774;9.174;2022-12-19T00:04:22;30.60;;;16.73;;
13463;SDS011;6804;48.774;9.174;2022-12-19T00:06:52;32.17;;;16.73;;
13463;SDS011;6804;48.774;9.174;2022-12-19T00:09:25;29.80;;;17.40;;
13463;SDS011;6804;48.774;9.174;2022-12-19T00:11:53;31.30;;;17.83;;
13463;SDS011;6804;48.774;9.174;2022-12-19T00:14:27;26.63;;;16.47;;
13463;SDS011;6804;48.774;9.174;2022-12-19T00:16:56;30.83;;;17.47;;
13463;SDS011;6804;48.774;9.174;2022-12-19T00:19:26;32.23;;;19.17;;
13463;SDS011;6804;48.774;9.174;2022-12-19T00:21:53;35.27;;;18.50;;
13463;SDS011;6804;48.774;9.174;2022-12-19T00:24:23;31.77;;;18.47;;
13463;SDS011;6804;48.774;9.174;2022-12-19T00:26:50;33.40;;;17.90;;
13463;SDS011;6804;48.774;9.174;2022-12-19T00:29:20;28.40;;;16.23;;
13463;SDS011;6804;48.774;9.174;2022-12-19T00:31:52;31.27;;;17.57;;
13463;SDS011;6804;48.774;9.174;2022-12-19T00:34:21;29.57;;;16.77;;
13463;SDS011;6804;48.774;9.174;2022-12-19T00:36:49;30.17;;;16.70;;
13463;SDS011;6804;48.774;9.174;2022-12-19T00:39:16;32.33;;;17.63;;
13463;SDS011;6804;48.774;9.174;2022-12-19T00:41:43;30.53;;;17.30;;
13463;SDS011;6804;48.774;9.174;2022-12-19T00:44:12;28.73;;;16.53;;
13463;SDS011;6804;48.774;9.174;2022-12-19T00:46:40;29.47;;;17.20;;
13463;SDS011;6804;48.774;9.174;2022-12-19T00:49:09;29.37;;;16.13;;
13463;SDS011;6804;48.774;9.174;2022-12-19T00:51:38;30.53;;;17.93;;
13463;SDS011;6804;48.774;9.174;2022-12-19T00:54:05;30.00;;;16.70;;
13463;SDS011;6804;48.774;9.174;2022-12-19T00:56:33;31.17;;;16.10;;
13463;SDS011;6804;48.774;9.174;2022-12-19T00:59:01;29.80;;;16.43;;
13463;SDS011;6804;48.774;9.174;2022-12-19T01:01:32;30.17;;;17.40;;
13463;SDS011;6804;48.774;9.174;2022-12-19T01:04:05;28.67;;;17.40;;
13463;SDS011;6804;48.774;9.174;2022-12-19T01:06:36;27.77;;;16.60;;
13463;SDS011;6804;48.774;9.174;2022-12-19T01:09:03;30.57;;;17.50;;
13463;SDS011;6804;48.774;9.174;2022-12-19T01:11:30;28.17;;;17.30;;
13463;SDS011;6804;48.774;9.174;2022-12-19T01:14:18;33.43;;;17.40;;
13463;SDS011;6804;48.774;9.174;2022-12-19T01:16:45;26.57;;;16.93;;
13463;SDS011;6804;48.774;9.174;2022-12-19T01:19:13;30.43;;;17.63;;
13463;SDS011;6804;48.774;9.174;2022-12-19T01:21:44;28.00;;;17.70;;
13463;SDS011;6804;48.774;9.174;2022-12-19T01:24:11;27.50;;;16.77;;
13463;SDS011;6804;48.774;9.174;2022-12-19T01:26:40;29.33;;;17.37;;
13463;SDS011;6804;48.774;9.174;2022-12-19T01:29:07;28.70;;;18.10;;
13463;SDS011;6804;48.774;9.174;2022-12-19T01:31:35;28.53;;;16.80;;
13463;SDS011;6804;48.774;9.174;2022-12-19T01:34:05;28.40;;;17.03;;
13463;SDS011;6804;48.774;9.174;2022-12-19T01:36:32;30.23;;;18.07;;
13463;SDS011;6804;48.774;9.174;2022-12-19T01:39:01;29.90;;;18.23;;
13463;SDS011;6804;48.774;9.174;2022-12-19T01:41:28;29.47;;;17.13;;
13463;SDS011;6804;48.774;9.174;2022-12-19T01:43:57;28.23;;;16.67;;
13463;SDS011;6804;48.774;9.174;2022-12-19T01:46:26;30.37;;;18.70;;
13463;SDS011;6804;48.774;9.174;2022-12-19T01:48:59;30.10;;;17.73;;
13463;SDS011;6804;48.774;9.174;2022-12-19T01:51:28;34.13;;;18.10;;
13463;SDS011;6804;48.774;9.174;2022-12-19T01:54:03;27.90;;;16.90;;
13463;SDS011;6804;48.774;9.174;2022-12-19T01:56:37;28.83;;;17.60;;
13463;SDS011;6804;48.774;9.174;2022-12-19T01:59:10;31.87;;;17.90;;
13463;SDS011;6804;48.774;9.174;2022-12-19T02:01:44;28.60;;;17.73;;
13463;SDS011;6804;48.774;9.174;2022-12-19T02:04:12;28.73;;;17.10;;
13463;SDS011;6804;48.774;9.174;2022-12-19T02:06:40;29.03;;;17.23;;
13463;SDS011;6804;48.774;9.174;2022-12-19T02:09:09;30.47;;;17.17;;
13463;SDS011;6804;48.774;9.174;2022-12-19T02:11:37;26.90;;;17.00;;
13463;SDS011;6804;48.774;9.174;2022-12-19T02:14:04;32.87;;;18.30;;
13463;SDS011;6804;48.774;9.174;2022-12-19T02:16:38;27.87;;;17.27;;
13463;SDS011;6804;48.774;9.174;2022-12-19T02:19:35;30.73;;;17.20;;
13463;SDS011;6804;48.774;9.174;2022-12-19T02:22:28;28.93;;;18.00;;
13463;SDS011;6804;48.774;9.174;2022-12-19T02:25:30;33.43;;;18.43;;
13463;SDS011;6804;48.774;9.174;2022-12-19T02:28:27;29.47;;;17.23;;
13463;SDS011;6804;48.774;9.174;2022-12-19T02:31:13;30.80;;;18.83;;
13463;SDS011;6804;48.774;9.174;2022-12-19T02:33:47;28.30;;;17.80;;
13463;SDS011;6804;48.774;9.174;2022-12-19T02:36:23;30.20;;;18.03;;
13463;SDS011;6804;48.774;9.174;2022-12-19T02:38:56;30.23;;;17.80;;
13463;SDS011;6804;48.774;9.174;2022-12-19T02:41:31;29.03;;;18.50;;
13463;SDS011;6804;48.774;9.174;2022-12-19T02:44:09;28.93;;;18.30;;
13463;SDS011;6804;48.774;9.174;2022-12-19T02:46:46;31.60;;;18.00;;
13463;SDS011;6804;48.774;9.174;2022-12-19T02:49:18;28.87;;;17.20;;
13463;SDS011;6804;48.774;9.174;2022-12-19T02:51:45;29.53;;;17.80;;
13463;SDS011;6804;48.774;9.174;2022-12-19T02:54:13;30.83;;;17.80;;
13463;SDS011;6804;48.774;9.174;2022-12-19T02:56:42;30.93;;;18.57;;
13463;SDS011;6804;48.774;9.174;2022-12-19T02:59:22;30.93;;;18.50;;
13463;SDS011;6804;48.774;9.174;2022-12-19T03:02:03;33.67;;;18.80;;
13463;SDS011;6804;48.774;9.174;2022-12-19T03:04:40;26.87;;;17.40;;
13463;SDS011;6804;48.774;9.174;2022-12-19T03:07:17;27.90;;;19.73;;
13463;SDS011;6804;48.774;9.174;2022-12-19T03:09:57;30.47;;;19.17;;
13463;SDS011;6804;48.774;9.174;2022-12-19T03:12:31;34.37;;;19.57;;
13463;SDS011;6804;48.774;9.174;2022-12-19T03:15:04;34.97;;;19.00;;
13463;SDS011;6804;48.774;9.174;2022-12-19T03:17:37;33.67;;;18.53;;
13463;SDS011;6804;48.774;9.174;2022-12-19T03:20:07;34.30;;;19.13;;
13463;SDS011;6804;48.774;9.174;2022-12-19T03:22:41;30.80;;;18.20;;
13463;SDS011;6804;48.774;9.174;2022-12-19T03:25:08;35.23;;;22.00;;
13463;SDS011;6804;48.774;9.174;2022-12-19T03:27:38;32.20;;;19.30;;
13463;SDS011;6804;48.774;9.174;2022-12-19T03:30:12;36.53;;;21.40;;
13463;SDS011;6804;48.774;9.174;2022-12-19T03:32:42;31.40;;;18.57;;
13463;SDS011;6804;48.774;9.174;2022-12-19T03:35:12;32.13;;;19.43;;
13463;SDS011;6804;48.774;9.174;2022-12-19T03:37:43;33.63;;;19.60;;
13463;SDS011;6804;48.774;9.174;2022-12-19T03:40:13;34.43;;;20.10;;
13463;SDS011;6804;48.774;9.174;2022-12-19T03:42:42;32.17;;;20.33;;
13463;SDS011;6804;48.774;9.174;2022-12-19T03:45:30;33.13;;;18.53;;
13463;SDS011;6804;48.774;9.174;2022-12-19T03:48:08;27.90;;;17.83;;
13463;SDS011;6804;48.774;9.174;2022-12-19T03:50:41;30.07;;;19.07;;
13463;SDS011;6804;48.774;9.174;2022-12-19T03:53:14;36.53;;;20.53;;
13463;SDS011;6804;48.774;9.174;2022-12-19T03:55:52;31.73;;;19.57;;
13463;SDS011;6804;48.774;9.174;2022-12-19T03:58:26;34.00;;;19.07;;
13463;SDS011;6804;48.774;9.174;2022-12-19T04:00:59;31.20;;;19.30;;
13463;SDS011;6804;48.774;9.174;2022-12-19T04:03:35;33.87;;;20.20;;
13463;SDS011;6804;48.774;9.174;2022-12-19T04:06:02;35.53;;;19.90;;
13463;SDS011;6804;48.774;9.174;2022-12-19T04:08:31;32.93;;;19.17;;
13463;SDS011;6804;48.774;9.174;2022-12-19T04:11:02;33.23;;;19.87;;
13463;SDS011;6804;48.774;9.174;2022-12-19T04:13:33;30.43;;;17.87;;
13463;SDS011;6804;48.774;9.174;2022-12-19T04:16:06;34.97;;;20.60;;
13463;SDS011;6804;48.774;9.174;2022-12-19T04:18:43;32.13;;;18.77;;
13463;SDS011;6804;48.774;9.174;2022-12-19T04:21:18;30.03;;;17.93;;
13463;SDS011;6804;48.774;9.174;2022-12-19T04:23:52;30.83;;;18.10;;
13463;SDS011;6804;48.774;9.174;2022-12-19T04:26:23;31.70;;;18.37;;
13463;SDS011;6804;48.774;9.174;2022-12-19T04:28:53;27.27;;;17.93;;
13463;SDS011;6804;48.774;9.174;2022-12-19T04:31:22;29.43;;;19.03;;
13463;SDS011;6804;48.774;9.174;2022-12-19T04:33:54;28.97;;;16.37;;
13463;SDS011;6804;48.774;9.174;2022-12-19T04:36:24;26.00;;;16.70;;
13463;SDS011;6804;48.774;9.174;2022-12-19T04:38:52;27.43;;;17.97;;
13463;SDS011;6804;48.774;9.174;2022-12-19T04:41:19;28.47;;;17.97;;
13463;SDS011;6804;48.774;9.174;2022-12-19T04:43:50;29.70;;;17.97;;
13463;SDS011;6804;48.774;9.174;2022-12-19T04:46:19;26.83;;;15.10;;
13463;SDS011;6804;48.774;9.174;2022-12-19T04:48:50;28.13;;;17.87;;
13463;SDS011;6804;48.774;9.174;2022-12-19T04:51:23;28.57;;;16.23;;
13463;SDS011;6804;48.774;9.174;2022-12-19T04:53:51;27.90;;;17.43;;
13463;SDS011;6804;48.774;9.174;2022-12-19T04:56:21;27.27;;;17.67;;
13463;SDS011;6804;48.774;9.174;2022-12-19T04:58:54;32.07;;;19.37;;
13463;SDS011;6804;48.774;9.174;2022-12-19T05:01:22;29.27;;;17.47;;
13463;SDS011;6804;48.774;9.174;2022-12-19T05:03:50;28.30;;;16.57;;
13463;SDS011;6804;48.774;9.174;2022-12-19T05:06:17;32.80;;;19.07;;
13463;SDS011;6804;48.774;9.174;2022-12-19T05:08:55;27.97;;;16.87;;
13463;SDS011;6804;48.774;9.174;2022-12-19T05:11:25;29.20;;;18.50;;
13463;SDS011;6804;48.774;9.174;2022-12-19T05:13:53;32.50;;;18.77;;
13463;SDS011;6804;48.774;9.174;2022-12-19T05:16:20;31.17;;;19.23;;
13463;SDS011;6804;48.774;9.174;2022-12-19T05:18:51;30.77;;;18.43;;
13463;SDS011;6804;48.774;9.174;2022-12-19T05:21:27;30.70;;;18.73;;
13463;SDS011;6804;48.774;9.174;2022-12-19T05:23:56;27.23;;;17.30;;
13463;SDS011;6804;48.774;9.174;2022-12-19T05:26:24;29.83;;;17.23;;
13463;SDS011;6804;48.774;9.174;2022-12-19T05:28:51;28.73;;;17.70;;
13463;SDS011;6804;48.774;9.174;2022-12-19T05:31:21;28.80;;;18.20;;
13463;SDS011;6804;48.774;9.174;2022-12-19T05:33:48;31.97;;;18.80;;
13463;SDS011;6804;48.774;9.174;2022-12-19T05:36:16;27.77;;;17.37;;
13463;SDS011;6804;48.774;9.174;2022-12-19T05:38:44;28.60;;;17.17;;
13463;SDS011;6804;48.774;9.174;2022-12-19T05:41:13;31.00;;;17.87;;
13463;SDS011;6804;48.774;9.174;2022-12-19T05:43:42;29.90;;;17.67;;
13463;SDS011;6804;48.774;9.174;2022-12-19T05:46:11;31.27;;;17.93;;
13463;SDS011;6804;48.774;9.174;2022-12-19T05:48:38;29.03;;;16.87;;
13463;SDS011;6804;48.774;9.174;2022-12-19T05:51:06;29.63;;;16.67;;
13463;SDS011;6804;48.774;9.174;2022-12-19T05:53:33;32.57;;;18.37;;
13463;SDS011;6804;48.774;9.174;2022-12-19T05:56:02;32.33;;;19.03;;
13463;SDS011;6804;48.774;9.174;2022-12-19T05:58:37;33.00;;;17.80;;
13463;SDS011;6804;48.774;9.174;2022-12-19T06:01:06;29.77;;;18.43;;
13463;SDS011;6804;48.774;9.174;2022-12-19T06:03:37;32.57;;;18.50;;
13463;SDS011;6804;48.774;9.174;2022-12-19T06:06:08;38.57;;;19.53;;
13463;SDS011;6804;48.774;9.174;2022-12-19T06:08:37;36.10;;;18.77;;
13463;SDS011;6804;48.774;9.174;2022-12-19T06:11:06;32.27;;;18.37;;
13463;SDS011;6804;48.774;9.174;2022-12-19T06:13:39;28.73;;;17.70;;
13463;SDS011;6804;48.774;9.174;2022-12-19T06:16:08;30.00;;;17.10;;
13463;SDS011;6804;48.774;9.174;2022-12-19T06:18:38;32.67;;;18.57;;
13463;SDS011;6804;48.774;9.174;2022-12-19T06:21:08;30.83;;;18.20;;
13463;SDS011;6804;48.774;9.174;2022-12-19T06:23:37;31.77;;;18.57;;
13463;SDS011;6804;48.774;9.174;2022-12-19T06:26:05;35.33;;;18.93;;
13463;SDS011;6804;48.774;9.174;2022-12-19T06:28:34;37.60;;;18.37;;
13463;SDS011;6804;48.774;9.174;2022-12-19T06:31:05;32.00;;;18.93;;
13463;SDS011;6804;48.774;9.174;2022-12-19T06:33:36;35.07;;;18.40;;
13463;SDS011;6804;48.774;9.174;2022-12-19T06:36:04;31.90;;;18.27;;
13463;SDS011;6804;48.774;9.174;2022-12-19T06:38:33;30.90;;;18.50;;
13463;SDS011;6804;48.774;9.174;2022-12-19T06:41:04;31.10;;;18.50;;
13463;SDS011;6804;48.774;9.174;2022-12-19T06:43:56;31.03;;;18.40;;
13463;SDS011;6804;48.774;9.174;2022-12-19T06:46:29;30.90;;;17.87;;
13463;SDS011;6804;48.774;9.174;2022-12-19T06:48:58;30.20;;;17.20;;
13463;SDS011;6804;48.774;9.174;2022-12-19T06:51:25;31.47;;;17.33;;
13463;SDS011;6804;48.774;9.174;2022-12-19T06:53:57;34.30;;;18.23;;
13463;SDS011;6804;48.774;9.174;2022-12-19T06:56:27;27.63;;;17.13;;
13463;SDS011;6804;48.774;9.174;2022-12-19T06:59:00;31.23;;;17.53;;
13463;SDS011;6804;48.774;9.174;2022-12-19T07:01:29;28.57;;;17.87;;
13463;SDS011;6804;48.774;9.174;2022-12-19T07:04:12;37.73;;;19.80;;
13463;SDS011;6804;48.774;9.174;2022-12-19T07:06:43;32.80;;;20.30;;
13463;SDS011;6804;48.774;9.174;2022-12-19T07:09:11;32.77;;;17.97;;
13463;SDS011;6804;48.774;9.174;2022-12-19T07:11:38;31.10;;;17.37;;
13463;SDS011;6804;48.774;9.174;2022-12-19T07:14:06;30.13;;;17.77;;
13463;SDS011;6804;48.774;9.174;2022-12-19T07:16:33;27.33;;;17.07;;
13463;SDS011;6804;48.774;9.174;2022-12-19T07:19:05;28.63;;;17.03;;
13463;SDS011;6804;48.774;9.174;2022-12-19T07:21:33;29.17;;;17.40;;
13463;SDS011;6804;48.774;9.174;2022-12-19T07:24:04;32.83;;;17.40;;
13463;SDS011;6804;48.774;9.174;2022-12-19T07:26:33;28.57;;;17.53;;
13463;SDS011;6804;48.774;9.174;2022-12-19T07:29:09;29.77;;;18.47;;
13463;SDS011;6804;48.774;9.174;2022-12-19T07:31:39;37.53;;;19.43;;
13463;SDS011;6804;48.774;9.174;2022-12-19T07:34:07;32.50;;;18.20;;
13463;SDS011;6804;48.774;9.174;2022-12-19T07:36:37;30.50;;;18.43;;
13463;SDS011;6804;48.774;9.174;2022-12-19T07:39:05;30.20;;;15.90;;
13463;SDS011;6804;48.774;9.174;2022-12-19T07:41:36;33.23;;;16.83;;
13463;SDS011;6804;48.774;9.174;2022-12-19T07:44:05;25.73;;;16.17;;
13463;SDS011;6804;48.774;9.174;2022-12-19T07:46:42;25.27;;;14.37;;
13463;SDS011;6804;48.774;9.174;2022-12-19T07:49:12;31.83;;;15.47;;
13463;SDS011;6804;48.774;9.174;2022-12-19T07:51:40;30.03;;;14.27;;
13463;SDS011;6804;48.774;9.174;2022-12-19T07:54:07;21.00;;;13.10;;
13463;SDS011;6804;48.774;9.174;2022-12-19T07:56:40;24.00;;;13.03;;
13463;SDS011;6804;48.774;9.174;2022-12-19T07:59:07;23.83;;;15.37;;
13463;SDS011;6804;48.774;9.174;2022-12-19T08:01:40;24.13;;;13.67;;
13463;SDS011;6804;48.774;9.174;2022-12-19T08:04:09;23.73;;;13.83;;
13463;SDS011;6804;48.774;9.174;2022-12-19T08:06:36;19.30;;;11.97;;
13463;SDS011;6804;48.774;9.174;2022-12-19T08:09:04;21.40;;;12.27;;
13463;SDS011;6804;48.774;9.174;2022-12-19T08:11:38;18.93;;;11.00;;
13463;SDS011;6804;48.774;9.174;2022-12-19T08:14:10;19.47;;;10.60;;
13463;SDS011;6804;48.774;9.174;2022-12-19T08:16:42;18.60;;;12.37;;
13463;SDS011;6804;48.774;9.174;2022-12-19T08:19:09;21.03;;;12.70;;
13463;SDS011;6804;48.774;9.174;2022-12-19T08:21:39;17.40;;;10.93;;
13463;SDS011;6804;48.774;9.174;2022-12-19T08:24:06;22.23;;;13.63;;
13463;SDS011;6804;48.774;9.174;2022-12-19T08:26:39;20.77;;;12.67;;
13463;SDS011;6804;48.774;9.174;2022-12-19T08:29:06;22.97;;;14.43;;
13463;SDS011;6804;48.774;9.174;2022-12-19T08:31:36;20.83;;;11.80;;
13463;SDS011;6804;48.774;9.174;2022-12-19T08:34:07;22.33;;;13.60;;
13463;SDS011;6804;48.774;9.174;2022-12-19T08:36:35;20.67;;;13.90;;
13463;SDS011;6804;48.774;9.174;2022-12-19T08:39:08;22.77;;;13.27;;
13463;SDS011;6804;48.774;9.174;2022-12-19T08:41:36;19.20;;;12.93;;
13463;SDS011;6804;48.774;9.174;2022-12-19T08:44:03;19.73;;;12.20;;
13463;SDS011;6804;48.774;9.174;2022-12-19T08:46:31;18.83;;;12.60;;
13463;SDS011;6804;48.774;9.174;2022-12-19T08:48:59;24.23;;;14.07;;
13463;SDS011;6804;48.774;9.174;2022-12-19T08:51:29;20.43;;;12.97;;
13463;SDS011;6804;48.774;9.174;2022-12-19T08:53:56;22.27;;;14.13;;
13463;SDS011;6804;48.774;9.174;2022-12-19T08:56:32;25.20;;;13.83;;
13463;SDS011;6804;48.774;9.174;2022-12-19T08:58:59;21.57;;;14.27;;
13463;SDS011;6804;48.774;9.174;2022-12-19T09:01:30;19.43;;;12.40;;
13463;SDS011;6804;48.774;9.174;2022-12-19T09:03:58;21.37;;;13.40;;
13463;SDS011;6804;48.774;9.174;2022-12-19T09:06:26;20.20;;;13.80;;
13463;SDS011;6804;48.774;9.174;2022-12-19T09:08:59;24.23;;;14.43;;
13463;SDS011;6804;48.774;9.174;2022-12-19T09:11:30;25.77;;;15.93;;
13463;SDS011;6804;48.774;9.174;2022-12-19T09:14:03;30.43;;;15.97;;
13463;SDS011;6804;48.774;9.174;2022-12-19T09:16:34;24.63;;;15.30;;
13463;SDS011;6804;48.774;9.174;2022-12-19T09:19:01;29.60;;;18.13;;
13463;SDS011;6804;48.774;9.174;2022-12-19T09:21:29;29.03;;;18.00;;
13463;SDS011;6804;48.774;9.174;2022-12-19T09:23:59;27.10;;;17.60;;
13463;SDS011;6804;48.774;9.174;2022-12-19T09:26:27;30.87;;;18.67;;
13463;SDS011;6804;48.774;9.174;2022-12-19T09:28:54;30.17;;;18.50;;
13463;SDS011;6804;48.774;9.174;2022-12-19T09:31:23;31.73;;;17.67;;
13463;SDS011;6804;48.774;9.174;2022-12-19T09:33:51;24.70;;;15.07;;
13463;SDS011;6804;48.774;9.174;2022-12-19T09:36:20;30.70;;;17.97;;
13463;SDS011;6804;48.774;9.174;2022-12-19T09:38:49;29.53;;;17.47;;
13463;SDS011;6804;48.774;9.174;2022-12-19T09:41:29;28.70;;;17.63;;
13463;SDS011;6804;48.774;9.174;2022-12-19T09:44:21;31.10;;;18.53;;
13463;SDS011;6804;48.774;9.174;2022-12-19T09:47:07;36.53;;;18.67;;
13463;SDS011;6804;48.774;9.174;2022-12-19T09:49:39;32.23;;;19.17;;
13463;SDS011;6804;48.774;9.174;2022-12-19T09:52:13;27.60;;;16.60;;
13463;SDS011;6804;48.774;9.174;2022-12-19T09:54:45;29.77;;;18.80;;
13463;SDS011;6804;48.774;9.174;2022-12-19T09:57:32;32.33;;;17.90;;
13463;SDS011;6804;48.774;9.174;2022-12-19T10:00:06;32.40;;;17.70;;
13463;SDS011;6804;48.774;9.174;2022-12-19T10:02:41;34.27;;;18.93;;
13463;SDS011;6804;48.774;9.174;2022-12-19T10:05:14;27.73;;;16.77;;
13463;SDS011;6804;48.774;9.174;2022-12-19T10:07:49;25.83;;;16.37;;
13463;SDS011;6804;48.774;9.174;2022-12-19T10:10:22;25.47;;;16.43;;
13463;SDS011;6804;48.774;9.174;2022-12-19T10:15:48;14.53;;;9.97;;
13463;SDS011;6804;48.774;9.174;2022-12-19T10:21:21;13.03;;;9.77;;
13463;SDS011;6804;48.774;9.174;2022-12-19T10:23:59;19.00;;;12.10;;
13463;SDS011;6804;48.774;9.174;2022-12-19T10:26:47;27.10;;;17.13;;
13463;SDS011;6804;48.774;9.174;2022-12-19T10:29:32;26.43;;;16.47;;
13463;SDS011;6804;48.774;9.174;2022-12-19T10:32:11;16.90;;;10.57;;
13463;SDS011;6804;48.774;9.174;2022-12-19T10:34:50;19.17;;;12.00;;
13463;SDS011;6804;48.774;9.174;2022-12-19T10:37:20;18.40;;;11.67;;
13463;SDS011;6804;48.774;9.174;2022-12-19T10:39:53;30.03;;;15.83;;
13463;SDS011;6804;48.774;9.174;2022-12-19T10:42:33;20.87;;;12.37;;
13463;SDS011;6804;48.774;9.174;2022-12-19T10:45:13;26.07;;;17.10;;
13463;SDS011;6804;48.774;9.174;2022-12-19T10:47:51;19.87;;;13.60;;
13463;SDS011;6804;48.774;9.174;2022-12-19T10:50:22;31.40;;;19.33;;
13463;SDS011;6804;48.774;9.174;2022-12-19T10:53:04;33.97;;;20.53;;
13463;SDS011;6804;48.774;9.174;2022-12-19T10:55:40;28.87;;;18.23;;
13463;SDS011;6804;48.774;9.174;2022-12-19T10:58:19;29.63;;;17.10;;
13463;SDS011;6804;48.774;9.174;2022-12-19T11:03:43;36.10;;;21.43;;
13463;SDS011;6804;48.774;9.174;2022-12-19T11:09:18;28.30;;;17.27;;
13463;SDS011;6804;48.774;9.174;2022-12-19T11:11:56;33.53;;;18.30;;
13463;SDS011;6804;48.774;9.174;2022-12-19T11:14:33;31.83;;;19.47;;
13463;SDS011;6804;48.774;9.174;2022-12-19T11:17:16;26.57;;;16.63;;
13463;SDS011;6804;48.774;9.174;2022-12-19T11:19:50;28.73;;;17.83;;
13463;SDS011;6804;48.774;9.174;2022-12-19T11:22:19;30.40;;;18.63;;
13463;SDS011;6804;48.774;9.174;2022-12-19T11:24:52;28.63;;;18.57;;
13463;SDS011;6804;48.774;9.174;2022-12-19T11:27:34;34.40;;;20.40;;
13463;SDS011;6804;48.774;9.174;2022-12-19T11:30:06;59.00;;;34.43;;
13463;SDS011;6804;48.774;9.174;2022-12-19T11:32:48;43.10;;;26.23;;
13463;SDS011;6804;48.774;9.174;2022-12-19T11:35:44;30.37;;;19.27;;
13463;SDS011;6804;48.774;9.174;2022-12-19T11:38:16;25.70;;;17.50;;
13463;SDS011;6804;48.774;9.174;2022-12-19T11:40:47;30.33;;;19.03;;
13463;SDS011;6804;48.774;9.174;2022-12-19T11:43:22;27.93;;;19.17;;
13463;SDS011;6804;48.774;9.174;2022-12-19T11:45:57;25.77;;;17.20;;
13463;SDS011;6804;48.774;9.174;2022-12-19T11:48:33;27.17;;;19.27;;
13463;SDS011;6804;48.774;9.174;2022-12-19T11:51:08;33.43;;;20.63;;
13463;SDS011;6804;48.774;9.174;2022-12-19T11:53:46;28.03;;;18.20;;
13463;SDS011;6804;48.774;9.174;2022-12-19T11:56:19;27.80;;;18.63;;
13463;SDS011;6804;48.774;9.174;2022-12-19T11:58:52;28.17;;;19.43;;
13463;SDS011;6804;48.774;9.174;2022-12-19T12:01:28;47.00;;;27.67;;
13463;SDS011;6804;48.774;9.174;2022-12-19T12:07:38;33.30;;;21.77;;
13463;SDS011;6804;48.774;9.174;2022-12-19T12:10:10;31.87;;;21.90;;
13463;SDS011;6804;48.774;9.174;2022-12-19T12:12:47;31.00;;;20.97;;
13463;SDS011;6804;48.774;9.174;2022-12-19T12:15:28;26.40;;;16.37;;
13463;SDS011;6804;48.774;9.174;2022-12-19T12:18:07;29.13;;;18.17;;
13463;SDS011;6804;48.774;9.174;2022-12-19T12:20:50;15.57;;;10.97;;
13463;SDS011;6804;48.774;9.174;2022-12-19T12:23:27;22.70;;;13.90;;
13463;SDS011;6804;48.774;9.174;2022-12-19T12:26:01;13.43;;;9.50;;
13463;SDS011;6804;48.774;9.174;2022-12-19T12:28:43;22.00;;;13.53;;
13463;SDS011;6804;48.774;9.174;2022-12-19T12:31:22;15.73;;;11.77;;
13463;SDS011;6804;48.774;9.174;2022-12-19T12:34:02;23.63;;;15.63;;
13463;SDS011;6804;48.774;9.174;2022-12-19T12:36:49;24.50;;;17.40;;
13463;SDS011;6804;48.774;9.174;2022-12-19T12:39:24;26.03;;;16.30;;
13463;SDS011;6804;48.774;9.174;2022-12-19T12:42:08;13.13;;;9.43;;
13463;SDS011;6804;48.774;9.174;2022-12-19T12:44:47;17.33;;;12.23;;
13463;SDS011;6804;48.774;9.174;2022-12-19T12:47:19;67.73;;;39.10;;
13463;SDS011;6804;48.774;9.174;2022-12-19T12:49:49;39.53;;;23.60;;
13463;SDS011;6804;48.774;9.174;2022-12-19T12:52:22;28.73;;;17.93;;
13463;SDS011;6804;48.774;9.174;2022-12-19T12:54:59;26.47;;;18.00;;
13463;SDS011;6804;48.774;9.174;2022-12-19T12:57:36;29.47;;;19.67;;
13463;SDS011;6804;48.774;9.174;2022-12-19T13:00:17;26.60;;;16.80;;
13463;SDS011;6804;48.774;9.174;2022-12-19T13:02:48;27.00;;;19.47;;
13463;SDS011;6804;48.774;9.174;2022-12-19T13:05:23;27.77;;;19.00;;
13463;SDS011;6804;48.774;9.174;2022-12-19T13:11:33;25.80;;;15.10;;
13463;SDS011;6804;48.774;9.174;2022-12-19T13:14:42;20.43;;;11.30;;
13463;SDS011;6804;48.774;9.174;2022-12-19T13:17:17;21.30;;;11.93;;
13463;SDS011;6804;48.774;9.174;2022-12-19T13:19:52;21.73;;;14.63;;
13463;SDS011;6804;48.774;9.174;2022-12-19T13:22:22;22.50;;;14.43;;
13463;SDS011;6804;48.774;9.174;2022-12-19T13:28:29;26.83;;;18.17;;
13463;SDS011;6804;48.774;9.174;2022-12-19T13:36:49;24.10;;;17.90;;
13463;SDS011;6804;48.774;9.174;2022-12-19T13:39:28;25.70;;;17.10;;
13463;SDS011;6804;48.774;9.174;2022-12-19T13:42:02;12.57;;;8.87;;
13463;SDS011;6804;48.774;9.174;2022-12-19T13:44:56;13.10;;;8.10;;
13463;SDS011;6804;48.774;9.174;2022-12-19T13:47:28;7.50;;;6.13;;
13463;SDS011;6804;48.774;9.174;2022-12-19T13:49:59;10.83;;;7.43;;
13463;SDS011;6804;48.774;9.174;2022-12-19T13:52:30;12.20;;;8.03;;
13463;SDS011;6804;48.774;9.174;2022-12-19T13:54:57;10.30;;;7.33;;
13463;SDS011;6804;48.774;9.174;2022-12-19T13:57:28;9.93;;;7.57;;
13463;SDS011;6804;48.774;9.174;2022-12-19T13:59:59;8.30;;;6.47;;
13463;SDS011;6804;48.774;9.174;2022-12-19T14:02:32;7.87;;;6.17;;
13463;SDS011;6804;48.774;9.174;2022-12-19T14:05:01;8.13;;;6.47;;
13463;SDS011;6804;48.774;9.174;2022-12-19T14:07:33;8.90;;;6.83;;
13463;SDS011;6804;48.774;9.174;2022-12-19T14:10:03;7.60;;;5.70;;
13463;SDS011;6804;48.774;9.174;2022-12-19T14:12:46;9.77;;;6.60;;
13463;SDS011;6804;48.774;9.174;2022-12-19T14:15:34;9.43;;;6.47;;
13463;SDS011;6804;48.774;9.174;2022-12-19T14:18:12;8.53;;;6.50;;
13463;SDS011;6804;48.774;9.174;2022-12-19T14:20:44;11.20;;;6.17;;
13463;SDS011;6804;48.774;9.174;2022-12-19T14:23:12;7.57;;;6.10;;
13463;SDS011;6804;48.774;9.174;2022-12-19T14:25:42;6.77;;;5.30;;
13463;SDS011;6804;48.774;9.174;2022-12-19T14:28:15;9.77;;;6.27;;
13463;SDS011;6804;48.774;9.174;2022-12-19T14:30:51;7.10;;;5.23;;
13463;SDS011;6804;48.774;9.174;2022-12-19T14:33:33;10.30;;;6.10;;
13463;SDS011;6804;48.774;9.174;2022-12-19T14:36:03;11.00;;;6.30;;
13463;SDS011;6804;48.774;9.174;2022-12-19T14:38:36;8.97;;;6.53;;
13463;SDS011;6804;48.774;9.174;2022-12-19T14:41:04;7.70;;;5.40;;
13463;SDS011;6804;48.774;9.174;2022-12-19T14:43:55;7.23;;;5.70;;
13463;SDS011;6804;48.774;9.174;2022-12-19T14:46:28;8.93;;;6.23;;
13463;SDS011;6804;48.774;9.174;2022-12-19T14:48:58;18.10;;;12.60;;
13463;SDS011;6804;48.774;9.174;2022-12-19T14:51:48;21.67;;;13.50;;
13463;SDS011;6804;48.774;9.174;2022-12-19T14:54:17;27.30;;;17.47;;
13463;SDS011;6804;48.774;9.174;2022-12-19T14:56:47;17.20;;;11.23;;
13463;SDS011;6804;48.774;9.174;2022-12-19T14:59:23;10.40;;;7.40;;
13463;SDS011;6804;48.774;9.174;2022-12-19T15:02:01;11.03;;;6.70;;
13463;SDS011;6804;48.774;9.174;2022-12-19T15:04:39;9.40;;;7.27;;
13463;SDS011;6804;48.774;9.174;2022-12-19T15:07:12;7.43;;;6.07;;
13463;SDS011;6804;48.774;9.174;2022-12-19T15:09:49;8.73;;;6.30;;
13463;SDS011;6804;48.774;9.174;2022-12-19T15:12:24;12.43;;;7.27;;
13463;SDS011;6804;48.774;9.174;2022-12-19T15:15:15;9.93;;;7.10;;
13463;SDS011;6804;48.774;9.174;2022-12-19T15:17:47;7.70;;;6.50;;
13463;SDS011;6804;48.774;9.174;2022-12-19T15:20:18;8.93;;;6.50;;
13463;SDS011;6804;48.774;9.174;2022-12-19T15:22:47;10.57;;;7.30;;
13463;SDS011;6804;48.774;9.174;2022-12-19T15:25:17;9.57;;;6.77;;
13463;SDS011;6804;48.774;9.174;2022-12-19T15:27:45;11.07;;;7.57;;
13463;SDS011;6804;48.774;9.174;2022-12-19T15:30:14;11.53;;;7.90;;
13463;SDS011;6804;48.774;9.174;2022-12-19T15:32:43;9.60;;;7.37;;
13463;SDS011;6804;48.774;9.174;2022-12-19T15:35:16;9.47;;;6.47;;
13463;SDS011;6804;48.774;9.174;2022-12-19T15:37:44;9.17;;;7.07;;
13463;SDS011;6804;48.774;9.174;2022-12-19T15:40:12;9.57;;;6.40;;